sensor_id;sensor_type;location;lat;lon;timestamp;P1;durP1;ratioP1;P2;durP2;ratioP2
40849;SDS011;26571;41.610;25.380;2023-06-14T00:00:10;3.53;;;3.33;;
40849;SDS011;26571;41.610;25.380;2023-06-14T00:05:03;3.80;;;3.53;;
40849;SDS011;26571;41.610;25.380;2023-06-14T00:07:37;7.30;;;3.60;;
40849;SDS011;26571;41.610;25.380;2023-06-14T00:12:34;3.95;;;3.65;;
40849;SDS011;26571;41.610;25.380;2023-06-14T00:15:00;5.22;;;3.78;;
40849;SDS011;26571;41.610;25.380;2023-06-14T00:17:26;4.35;;;4.05;;
40849;SDS011;26571;41.610;25.380;2023-06-14T00:19:56;4.47;;;4.07;;
40849;SDS011;26571;41.610;25.380;2023-06-14T00:22:22;4.22;;;3.60;;
40849;SDS011;26571;41.610;25.380;2023-06-14T00:27:15;5.40;;;3.83;;
40849;SDS011;26571;41.610;25.380;2023-06-14T00:29:40;4.07;;;3.30;;
40849;SDS011;26571;41.610;25.380;2023-06-14T00:32:06;4.53;;;4.25;;
40849;SDS011;26571;41.610;25.380;2023-06-14T00:34:32;3.85;;;3.65;;
40849;SDS011;26571;41.610;25.380;2023-06-14T00:36:58;5.80;;;4.53;;
40849;SDS011;26571;41.610;25.380;2023-06-14T00:39:23;5.40;;;4.22;;
40849;SDS011;26571;41.610;25.380;2023-06-14T00:41:48;4.90;;;4.47;;
40849;SDS011;26571;41.610;25.380;2023-06-14T00:44:14;4.55;;;4.20;;
40849;SDS011;26571;41.610;25.380;2023-06-14T00:46:42;4.47;;;4.18;;
40849;SDS011;26571;41.610;25.380;2023-06-14T00:49:08;4.75;;;4.07;;
40849;SDS011;26571;41.610;25.380;2023-06-14T00:51:33;4.45;;;4.10;;
40849;SDS011;26571;41.610;25.380;2023-06-14T00:53:59;4.88;;;4.20;;
40849;SDS011;26571;41.610;25.380;2023-06-14T00:56:25;6.80;;;4.43;;
40849;SDS011;26571;41.610;25.380;2023-06-14T00:58:52;4.57;;;4.13;;
40849;SDS011;26571;41.610;25.380;2023-06-14T01:01:18;4.72;;;4.32;;
40849;SDS011;26571;41.610;25.380;2023-06-14T01:03:43;4.40;;;4.05;;
40849;SDS011;26571;41.610;25.380;2023-06-14T01:11:59;4.88;;;4.13;;
40849;SDS011;26571;41.610;25.380;2023-06-14T01:14:29;4.82;;;4.43;;
40849;SDS011;26571;41.610;25.380;2023-06-14T01:16:58;7.70;;;3.95;;
40849;SDS011;26571;41.610;25.380;2023-06-14T01:19:25;4.78;;;4.38;;
40849;SDS011;26571;41.610;25.380;2023-06-14T01:21:53;6.07;;;5.18;;
40849;SDS011;26571;41.610;25.380;2023-06-14T01:24:20;5.32;;;4.95;;
40849;SDS011;26571;41.610;25.380;2023-06-14T01:26:51;5.72;;;3.85;;
40849;SDS011;26571;41.610;25.380;2023-06-14T01:29:21;4.88;;;4.55;;
40849;SDS011;26571;41.610;25.380;2023-06-14T01:31:48;8.45;;;5.05;;
40849;SDS011;26571;41.610;25.380;2023-06-14T01:34:14;3.88;;;3.63;;
40849;SDS011;26571;41.610;25.380;2023-06-14T01:36:40;3.85;;;3.72;;
40849;SDS011;26571;41.610;25.380;2023-06-14T01:39:08;5.50;;;4.07;;
40849;SDS011;26571;41.610;25.380;2023-06-14T01:41:38;4.82;;;4.30;;
40849;SDS011;26571;41.610;25.380;2023-06-14T01:44:05;5.05;;;4.68;;
40849;SDS011;26571;41.610;25.380;2023-06-14T01:46:31;5.55;;;5.03;;
40849;SDS011;26571;41.610;25.380;2023-06-14T01:48:56;6.53;;;4.72;;
40849;SDS011;26571;41.610;25.380;2023-06-14T01:51:22;5.85;;;5.35;;
40849;SDS011;26571;41.610;25.380;2023-06-14T01:53:47;4.82;;;4.43;;
40849;SDS011;26571;41.610;25.380;2023-06-14T01:56:13;5.40;;;4.93;;
40849;SDS011;26571;41.610;25.380;2023-06-14T01:58:39;6.55;;;4.40;;
40849;SDS011;26571;41.610;25.380;2023-06-14T02:01:05;5.38;;;5.07;;
40849;SDS011;26571;41.610;25.380;2023-06-14T02:03:31;5.55;;;5.05;;
40849;SDS011;26571;41.610;25.380;2023-06-14T02:05:57;9.98;;;4.20;;
40849;SDS011;26571;41.610;25.380;2023-06-14T02:08:23;5.22;;;4.47;;
40849;SDS011;26571;41.610;25.380;2023-06-14T02:10:48;5.43;;;4.90;;
40849;SDS011;26571;41.610;25.380;2023-06-14T02:13:14;4.80;;;4.40;;
40849;SDS011;26571;41.610;25.380;2023-06-14T02:15:39;5.72;;;5.30;;
40849;SDS011;26571;41.610;25.380;2023-06-14T02:18:08;5.05;;;4.70;;
40849;SDS011;26571;41.610;25.380;2023-06-14T02:20:35;6.55;;;5.32;;
40849;SDS011;26571;41.610;25.380;2023-06-14T02:23:01;4.85;;;4.63;;
40849;SDS011;26571;41.610;25.380;2023-06-14T02:25:26;5.55;;;4.88;;
40849;SDS011;26571;41.610;25.380;2023-06-14T02:27:55;10.60;;;4.65;;
40849;SDS011;26571;41.610;25.380;2023-06-14T02:30:20;5.70;;;4.85;;
40849;SDS011;26571;41.610;25.380;2023-06-14T02:32:46;4.72;;;4.53;;
40849;SDS011;26571;41.610;25.380;2023-06-14T02:35:13;6.38;;;5.88;;
40849;SDS011;26571;41.610;25.380;2023-06-14T02:37:39;5.55;;;5.05;;
40849;SDS011;26571;41.610;25.380;2023-06-14T02:40:06;6.97;;;5.47;;
40849;SDS011;26571;41.610;25.380;2023-06-14T02:42:32;6.30;;;5.85;;
40849;SDS011;26571;41.610;25.380;2023-06-14T02:44:57;11.70;;;5.60;;
40849;SDS011;26571;41.610;25.380;2023-06-14T02:47:23;6.72;;;6.25;;
40849;SDS011;26571;41.610;25.380;2023-06-14T02:49:49;7.75;;;5.75;;
40849;SDS011;26571;41.610;25.380;2023-06-14T02:52:15;7.38;;;5.88;;
40849;SDS011;26571;41.610;25.380;2023-06-14T02:54:41;5.72;;;5.43;;
40849;SDS011;26571;41.610;25.380;2023-06-14T02:57:06;6.93;;;6.53;;
40849;SDS011;26571;41.610;25.380;2023-06-14T02:59:32;6.28;;;5.75;;
40849;SDS011;26571;41.610;25.380;2023-06-14T03:01:58;6.90;;;6.22;;
40849;SDS011;26571;41.610;25.380;2023-06-14T03:04:23;7.32;;;6.30;;
40849;SDS011;26571;41.610;25.380;2023-06-14T03:06:51;6.25;;;5.68;;
40849;SDS011;26571;41.610;25.380;2023-06-14T03:09:18;6.10;;;5.72;;
40849;SDS011;26571;41.610;25.380;2023-06-14T03:11:44;6.53;;;5.80;;
40849;SDS011;26571;41.610;25.380;2023-06-14T03:14:10;6.65;;;5.85;;
40849;SDS011;26571;41.610;25.380;2023-06-14T03:16:36;7.68;;;5.80;;
40849;SDS011;26571;41.610;25.380;2023-06-14T03:19:02;7.07;;;6.47;;
40849;SDS011;26571;41.610;25.380;2023-06-14T03:21:27;5.68;;;5.28;;
40849;SDS011;26571;41.610;25.380;2023-06-14T03:23:53;6.20;;;5.80;;
40849;SDS011;26571;41.610;25.380;2023-06-14T03:26:19;6.45;;;6.05;;
40849;SDS011;26571;41.610;25.380;2023-06-14T03:28:45;5.55;;;5.15;;
40849;SDS011;26571;41.610;25.380;2023-06-14T03:31:11;5.22;;;4.80;;
40849;SDS011;26571;41.610;25.380;2023-06-14T03:33:37;8.97;;;4.00;;
40849;SDS011;26571;41.610;25.380;2023-06-14T03:36:03;4.50;;;4.20;;
40849;SDS011;26571;41.610;25.380;2023-06-14T03:38:28;5.13;;;4.65;;
40849;SDS011;26571;41.610;25.380;2023-06-14T03:40:54;5.38;;;4.75;;
40849;SDS011;26571;41.610;25.380;2023-06-14T03:43:20;5.10;;;3.80;;
40849;SDS011;26571;41.610;25.380;2023-06-14T03:45:45;3.60;;;3.45;;
40849;SDS011;26571;41.610;25.380;2023-06-14T03:48:11;3.75;;;3.65;;
40849;SDS011;26571;41.610;25.380;2023-06-14T03:50:36;4.37;;;4.00;;
40849;SDS011;26571;41.610;25.380;2023-06-14T03:53:03;3.45;;;3.03;;
40849;SDS011;26571;41.610;25.380;2023-06-14T03:55:29;3.28;;;3.08;;
40849;SDS011;26571;41.610;25.380;2023-06-14T03:57:56;2.90;;;2.03;;
40849;SDS011;26571;41.610;25.380;2023-06-14T04:00:22;5.20;;;2.37;;
40849;SDS011;26571;41.610;25.380;2023-06-14T04:02:48;2.42;;;2.22;;
40849;SDS011;26571;41.610;25.380;2023-06-14T04:05:14;5.13;;;2.03;;
40849;SDS011;26571;41.610;25.380;2023-06-14T04:10:10;2.67;;;2.58;;
40849;SDS011;26571;41.610;25.380;2023-06-14T04:12:39;2.03;;;1.92;;
40849;SDS011;26571;41.610;25.380;2023-06-14T04:15:04;4.60;;;3.03;;
40849;SDS011;26571;41.610;25.380;2023-06-14T04:17:34;2.85;;;2.70;;
40849;SDS011;26571;41.610;25.380;2023-06-14T04:19:59;3.00;;;2.33;;
40849;SDS011;26571;41.610;25.380;2023-06-14T04:22:26;2.80;;;1.80;;
40849;SDS011;26571;41.610;25.380;2023-06-14T04:24:55;2.55;;;2.30;;
40849;SDS011;26571;41.610;25.380;2023-06-14T04:27:21;2.72;;;2.63;;
40849;SDS011;26571;41.610;25.380;2023-06-14T04:29:50;3.78;;;3.20;;
40849;SDS011;26571;41.610;25.380;2023-06-14T04:32:28;4.13;;;2.55;;
40849;SDS011;26571;41.610;25.380;2023-06-14T04:34:58;2.95;;;2.75;;
40849;SDS011;26571;41.610;25.380;2023-06-14T04:37:27;3.00;;;2.88;;
40849;SDS011;26571;41.610;25.380;2023-06-14T04:39:54;3.28;;;3.08;;
40849;SDS011;26571;41.610;25.380;2023-06-14T04:42:21;3.40;;;3.20;;
40849;SDS011;26571;41.610;25.380;2023-06-14T04:44:50;3.63;;;3.40;;
40849;SDS011;26571;41.610;25.380;2023-06-14T04:49:42;4.22;;;3.40;;
40849;SDS011;26571;41.610;25.380;2023-06-14T04:52:07;5.70;;;4.70;;
40849;SDS011;26571;41.610;25.380;2023-06-14T04:54:35;4.43;;;4.03;;
40849;SDS011;26571;41.610;25.380;2023-06-14T04:57:06;5.03;;;4.72;;
40849;SDS011;26571;41.610;25.380;2023-06-14T04:59:31;7.32;;;4.75;;
40849;SDS011;26571;41.610;25.380;2023-06-14T05:01:58;4.35;;;4.00;;
40849;SDS011;26571;41.610;25.380;2023-06-14T05:04:25;4.38;;;4.18;;
40849;SDS011;26571;41.610;25.380;2023-06-14T05:09:19;4.90;;;4.47;;
40849;SDS011;26571;41.610;25.380;2023-06-14T05:11:46;7.93;;;5.65;;
40849;SDS011;26571;41.610;25.380;2023-06-14T05:14:12;4.88;;;4.13;;
40849;SDS011;26571;41.610;25.380;2023-06-14T05:16:38;5.43;;;4.40;;
40849;SDS011;26571;41.610;25.380;2023-06-14T05:19:04;8.70;;;4.95;;
40849;SDS011;26571;41.610;25.380;2023-06-14T05:21:29;5.97;;;5.57;;
40849;SDS011;26571;41.610;25.380;2023-06-14T05:23:57;4.63;;;4.07;;
40849;SDS011;26571;41.610;25.380;2023-06-14T05:26:22;5.05;;;4.43;;
40849;SDS011;26571;41.610;25.380;2023-06-14T05:28:50;4.43;;;4.03;;
40849;SDS011;26571;41.610;25.380;2023-06-14T05:31:17;9.50;;;6.95;;
40849;SDS011;26571;41.610;25.380;2023-06-14T05:33:43;8.07;;;5.38;;
40849;SDS011;26571;41.610;25.380;2023-06-14T05:36:08;11.93;;;6.77;;
40849;SDS011;26571;41.610;25.380;2023-06-14T05:38:33;2.77;;;2.67;;
40849;SDS011;26571;41.610;25.380;2023-06-14T05:40:59;5.17;;;4.63;;
40849;SDS011;26571;41.610;25.380;2023-06-14T05:43:24;6.30;;;4.83;;
40849;SDS011;26571;41.610;25.380;2023-06-14T05:45:49;4.00;;;3.67;;
40849;SDS011;26571;41.610;25.380;2023-06-14T05:48:15;4.57;;;4.17;;
40849;SDS011;26571;41.610;25.380;2023-06-14T05:50:40;6.67;;;4.20;;
40849;SDS011;26571;41.610;25.380;2023-06-14T05:53:06;3.80;;;3.33;;
40849;SDS011;26571;41.610;25.380;2023-06-14T05:55:31;8.50;;;3.67;;
40849;SDS011;26571;41.610;25.380;2023-06-14T05:57:56;4.27;;;3.70;;
40849;SDS011;26571;41.610;25.380;2023-06-14T06:00:22;4.23;;;3.40;;
40849;SDS011;26571;41.610;25.380;2023-06-14T06:02:47;4.23;;;3.90;;
40849;SDS011;26571;41.610;25.380;2023-06-14T06:05:13;3.60;;;3.30;;
40849;SDS011;26571;41.610;25.380;2023-06-14T06:07:40;3.75;;;3.45;;
40849;SDS011;26571;41.610;25.380;2023-06-14T06:10:06;4.63;;;3.97;;
40849;SDS011;26571;41.610;25.380;2023-06-14T06:12:32;3.73;;;3.53;;
40849;SDS011;26571;41.610;25.380;2023-06-14T06:14:58;4.30;;;4.00;;
40849;SDS011;26571;41.610;25.380;2023-06-14T06:17:24;4.38;;;3.97;;
40849;SDS011;26571;41.610;25.380;2023-06-14T06:19:50;4.38;;;3.90;;
40849;SDS011;26571;41.610;25.380;2023-06-14T06:22:15;3.73;;;3.57;;
40849;SDS011;26571;41.610;25.380;2023-06-14T06:24:42;3.90;;;3.63;;
40849;SDS011;26571;41.610;25.380;2023-06-14T06:27:07;3.77;;;3.53;;
40849;SDS011;26571;41.610;25.380;2023-06-14T06:29:33;3.90;;;3.63;;
40849;SDS011;26571;41.610;25.380;2023-06-14T06:31:59;3.13;;;2.90;;
40849;SDS011;26571;41.610;25.380;2023-06-14T06:34:25;3.53;;;3.33;;
40849;SDS011;26571;41.610;25.380;2023-06-14T06:36:50;3.83;;;2.00;;
40849;SDS011;26571;41.610;25.380;2023-06-14T06:39:16;2.20;;;2.10;;
40849;SDS011;26571;41.610;25.380;2023-06-14T06:41:41;4.53;;;1.87;;
40849;SDS011;26571;41.610;25.380;2023-06-14T06:44:07;1.43;;;1.43;;
40849;SDS011;26571;41.610;25.380;2023-06-14T06:46:32;3.07;;;2.40;;
40849;SDS011;26571;41.610;25.380;2023-06-14T06:48:59;2.50;;;1.95;;
40849;SDS011;26571;41.610;25.380;2023-06-14T06:51:25;4.50;;;2.77;;
40849;SDS011;26571;41.610;25.380;2023-06-14T06:53:54;2.10;;;2.00;;
40849;SDS011;26571;41.610;25.380;2023-06-14T06:56:20;2.47;;;1.50;;
40849;SDS011;26571;41.610;25.380;2023-06-14T06:58:50;1.63;;;1.25;;
40849;SDS011;26571;41.610;25.380;2023-06-14T07:01:16;15.03;;;3.53;;
40849;SDS011;26571;41.610;25.380;2023-06-14T07:03:42;1.55;;;1.15;;
40849;SDS011;26571;41.610;25.380;2023-06-14T07:06:08;6.50;;;2.13;;
40849;SDS011;26571;41.610;25.380;2023-06-14T07:08:33;2.37;;;1.47;;
40849;SDS011;26571;41.610;25.380;2023-06-14T07:10:59;1.80;;;1.33;;
40849;SDS011;26571;41.610;25.380;2023-06-14T07:13:25;3.43;;;1.83;;
40849;SDS011;26571;41.610;25.380;2023-06-14T07:15:50;3.50;;;1.83;;
40849;SDS011;26571;41.610;25.380;2023-06-14T07:18:20;2.90;;;1.20;;
40849;SDS011;26571;41.610;25.380;2023-06-14T07:20:45;4.43;;;2.27;;
40849;SDS011;26571;41.610;25.380;2023-06-14T07:23:12;1.88;;;1.10;;
40849;SDS011;26571;41.610;25.380;2023-06-14T07:25:37;2.93;;;1.50;;
40849;SDS011;26571;41.610;25.380;2023-06-14T07:28:03;1.33;;;1.07;;
40849;SDS011;26571;41.610;25.380;2023-06-14T07:30:28;4.33;;;1.23;;
40849;SDS011;26571;41.610;25.380;2023-06-14T07:32:55;2.13;;;0.65;;
40849;SDS011;26571;41.610;25.380;2023-06-14T07:35:21;2.13;;;0.80;;
40849;SDS011;26571;41.610;25.380;2023-06-14T07:37:46;4.20;;;1.03;;
40849;SDS011;26571;41.610;25.380;2023-06-14T07:40:12;6.28;;;1.92;;
40849;SDS011;26571;41.610;25.380;2023-06-14T07:42:38;4.85;;;1.50;;
40849;SDS011;26571;41.610;25.380;2023-06-14T07:45:04;2.17;;;1.40;;
40849;SDS011;26571;41.610;25.380;2023-06-14T07:49:56;1.70;;;0.55;;
40849;SDS011;26571;41.610;25.380;2023-06-14T07:52:21;0.80;;;0.80;;
40849;SDS011;26571;41.610;25.380;2023-06-14T07:54:47;0.73;;;0.70;;
40849;SDS011;26571;41.610;25.380;2023-06-14T07:57:12;1.00;;;1.00;;
40849;SDS011;26571;41.610;25.380;2023-06-14T07:59:38;1.90;;;0.87;;
40849;SDS011;26571;41.610;25.380;2023-06-14T08:02:03;0.77;;;0.73;;
40849;SDS011;26571;41.610;25.380;2023-06-14T08:04:29;0.77;;;0.63;;
40849;SDS011;26571;41.610;25.380;2023-06-14T08:06:54;0.70;;;0.50;;
40849;SDS011;26571;41.610;25.380;2023-06-14T08:09:20;0.70;;;0.53;;
40849;SDS011;26571;41.610;25.380;2023-06-14T08:11:45;2.23;;;0.73;;
40849;SDS011;26571;41.610;25.380;2023-06-14T08:14:11;1.20;;;0.93;;
40849;SDS011;26571;41.610;25.380;2023-06-14T08:16:36;1.33;;;0.90;;
40849;SDS011;26571;41.610;25.380;2023-06-14T08:19:02;1.10;;;0.75;;
40849;SDS011;26571;41.610;25.380;2023-06-14T08:21:28;4.00;;;0.80;;
40849;SDS011;26571;41.610;25.380;2023-06-14T08:23:54;0.90;;;0.80;;
40849;SDS011;26571;41.610;25.380;2023-06-14T08:26:20;3.42;;;0.90;;
40849;SDS011;26571;41.610;25.380;2023-06-14T08:28:46;1.00;;;1.00;;
40849;SDS011;26571;41.610;25.380;2023-06-14T08:31:11;2.50;;;1.27;;
40849;SDS011;26571;41.610;25.380;2023-06-14T08:33:37;2.08;;;0.60;;
40849;SDS011;26571;41.610;25.380;2023-06-14T08:38:29;1.15;;;0.90;;
40849;SDS011;26571;41.610;25.380;2023-06-14T08:40:56;1.87;;;1.10;;
40849;SDS011;26571;41.610;25.380;2023-06-14T08:43:22;4.43;;;1.23;;
40849;SDS011;26571;41.610;25.380;2023-06-14T08:45:48;1.23;;;1.03;;
40849;SDS011;26571;41.610;25.380;2023-06-14T08:48:18;1.40;;;1.35;;
40849;SDS011;26571;41.610;25.380;2023-06-14T08:50:45;5.50;;;1.67;;
40849;SDS011;26571;41.610;25.380;2023-06-14T08:53:13;1.60;;;1.50;;
40849;SDS011;26571;41.610;25.380;2023-06-14T08:55:45;1.50;;;1.40;;
40849;SDS011;26571;41.610;25.380;2023-06-14T08:58:12;3.30;;;1.05;;
40849;SDS011;26571;41.610;25.380;2023-06-14T09:00:39;2.08;;;1.10;;
40849;SDS011;26571;41.610;25.380;2023-06-14T09:03:06;1.45;;;1.15;;
40849;SDS011;26571;41.610;25.380;2023-06-14T09:05:38;1.73;;;1.02;;
40849;SDS011;26571;41.610;25.380;2023-06-14T09:08:04;1.63;;;1.52;;
40849;SDS011;26571;41.610;25.380;2023-06-14T09:10:30;1.80;;;1.37;;
40849;SDS011;26571;41.610;25.380;2023-06-14T09:12:58;2.15;;;1.70;;
40849;SDS011;26571;41.610;25.380;2023-06-14T09:15:26;2.78;;;2.10;;
40849;SDS011;26571;41.610;25.380;2023-06-14T09:17:51;4.53;;;2.90;;
40849;SDS011;26571;41.610;25.380;2023-06-14T09:20:17;1.40;;;1.30;;
40849;SDS011;26571;41.610;25.380;2023-06-14T09:22:45;1.80;;;1.52;;
40849;SDS011;26571;41.610;25.380;2023-06-14T09:25:10;3.87;;;1.60;;
40849;SDS011;26571;41.610;25.380;2023-06-14T09:27:40;3.65;;;1.25;;
40849;SDS011;26571;41.610;25.380;2023-06-14T09:30:08;2.95;;;1.48;;
40849;SDS011;26571;41.610;25.380;2023-06-14T09:32:38;1.10;;;1.00;;
40849;SDS011;26571;41.610;25.380;2023-06-14T09:35:08;2.78;;;1.13;;
40849;SDS011;26571;41.610;25.380;2023-06-14T09:37:34;0.90;;;0.90;;
40849;SDS011;26571;41.610;25.380;2023-06-14T09:40:00;3.70;;;0.80;;
40849;SDS011;26571;41.610;25.380;2023-06-14T09:42:26;1.00;;;0.90;;
40849;SDS011;26571;41.610;25.380;2023-06-14T09:44:53;1.33;;;1.02;;
40849;SDS011;26571;41.610;25.380;2023-06-14T09:49:45;2.65;;;1.20;;
40849;SDS011;26571;41.610;25.380;2023-06-14T09:52:13;2.77;;;0.80;;
40849;SDS011;26571;41.610;25.380;2023-06-14T09:54:41;1.02;;;0.90;;
40849;SDS011;26571;41.610;25.380;2023-06-14T09:57:11;1.85;;;1.05;;
40849;SDS011;26571;41.610;25.380;2023-06-14T09:59:42;2.63;;;0.90;;
40849;SDS011;26571;41.610;25.380;2023-06-14T10:02:22;0.90;;;0.73;;
40849;SDS011;26571;41.610;25.380;2023-06-14T10:04:50;3.63;;;0.93;;
40849;SDS011;26571;41.610;25.380;2023-06-14T10:07:23;0.70;;;0.70;;
40849;SDS011;26571;41.610;25.380;2023-06-14T10:09:52;1.35;;;1.25;;
40849;SDS011;26571;41.610;25.380;2023-06-14T10:12:18;0.90;;;0.80;;
40849;SDS011;26571;41.610;25.380;2023-06-14T10:14:50;1.77;;;1.02;;
40849;SDS011;26571;41.610;25.380;2023-06-14T10:17:30;4.05;;;1.80;;
40849;SDS011;26571;41.610;25.380;2023-06-14T10:20:06;2.58;;;0.70;;
40849;SDS011;26571;41.610;25.380;2023-06-14T10:22:47;1.30;;;0.68;;
40849;SDS011;26571;41.610;25.380;2023-06-14T10:25:26;2.53;;;1.10;;
40849;SDS011;26571;41.610;25.380;2023-06-14T10:30:26;1.70;;;1.10;;
40849;SDS011;26571;41.610;25.380;2023-06-14T10:33:05;0.80;;;0.50;;
40849;SDS011;26571;41.610;25.380;2023-06-14T10:35:32;2.20;;;0.60;;
40849;SDS011;26571;41.610;25.380;2023-06-14T10:38:07;0.60;;;0.60;;
40849;SDS011;26571;41.610;25.380;2023-06-14T10:40:34;3.00;;;1.10;;
40849;SDS011;26571;41.610;25.380;2023-06-14T10:42:59;1.40;;;0.65;;
40849;SDS011;26571;41.610;25.380;2023-06-14T10:45:25;1.33;;;0.63;;
40849;SDS011;26571;41.610;25.380;2023-06-14T10:47:50;2.80;;;0.50;;
40849;SDS011;26571;41.610;25.380;2023-06-14T10:50:17;0.60;;;0.60;;
40849;SDS011;26571;41.610;25.380;2023-06-14T10:52:53;1.35;;;0.73;;
40849;SDS011;26571;41.610;25.380;2023-06-14T10:55:19;1.20;;;0.70;;
40849;SDS011;26571;41.610;25.380;2023-06-14T10:57:48;1.05;;;0.70;;
40849;SDS011;26571;41.610;25.380;2023-06-14T11:00:25;1.33;;;0.70;;
40849;SDS011;26571;41.610;25.380;2023-06-14T11:11:01;1.15;;;0.88;;
40849;SDS011;26571;41.610;25.380;2023-06-14T11:13:31;3.33;;;0.60;;
40849;SDS011;26571;41.610;25.380;2023-06-14T11:15:57;1.40;;;0.70;;
40849;SDS011;26571;41.610;25.380;2023-06-14T11:18:23;0.60;;;0.60;;
40849;SDS011;26571;41.610;25.380;2023-06-14T11:20:49;0.50;;;0.50;;
40849;SDS011;26571;41.610;25.380;2023-06-14T11:23:15;2.80;;;0.60;;
40849;SDS011;26571;41.610;25.380;2023-06-14T11:25:41;2.37;;;0.50;;
40849;SDS011;26571;41.610;25.380;2023-06-14T11:28:06;2.03;;;0.60;;
40849;SDS011;26571;41.610;25.380;2023-06-14T11:30:32;0.97;;;0.50;;
40849;SDS011;26571;41.610;25.380;2023-06-14T11:32:57;0.40;;;0.40;;
40849;SDS011;26571;41.610;25.380;2023-06-14T11:35:23;1.57;;;0.67;;
40849;SDS011;26571;41.610;25.380;2023-06-14T11:37:56;3.22;;;0.55;;
40849;SDS011;26571;41.610;25.380;2023-06-14T11:40:25;1.25;;;0.85;;
40849;SDS011;26571;41.610;25.380;2023-06-14T11:42:59;0.70;;;0.70;;
40849;SDS011;26571;41.610;25.380;2023-06-14T11:45:25;2.38;;;0.70;;
40849;SDS011;26571;41.610;25.380;2023-06-14T11:47:53;1.37;;;0.70;;
40849;SDS011;26571;41.610;25.380;2023-06-14T11:50:21;3.03;;;1.10;;
40849;SDS011;26571;41.610;25.380;2023-06-14T11:52:53;1.40;;;0.60;;
40849;SDS011;26571;41.610;25.380;2023-06-14T11:55:20;2.55;;;0.50;;
40849;SDS011;26571;41.610;25.380;2023-06-14T11:57:47;6.10;;;1.70;;
40849;SDS011;26571;41.610;25.380;2023-06-14T12:00:12;1.13;;;0.90;;
40849;SDS011;26571;41.610;25.380;2023-06-14T12:02:40;1.85;;;0.77;;
40849;SDS011;26571;41.610;25.380;2023-06-14T12:05:06;4.67;;;0.73;;
40849;SDS011;26571;41.610;25.380;2023-06-14T12:07:37;0.88;;;0.50;;
40849;SDS011;26571;41.610;25.380;2023-06-14T12:10:05;0.68;;;0.50;;
40849;SDS011;26571;41.610;25.380;2023-06-14T12:12:35;1.13;;;0.93;;
40849;SDS011;26571;41.610;25.380;2023-06-14T12:15:03;1.35;;;1.00;;
40849;SDS011;26571;41.610;25.380;2023-06-14T12:17:34;0.70;;;0.60;;
40849;SDS011;26571;41.610;25.380;2023-06-14T12:20:11;3.60;;;0.57;;
40849;SDS011;26571;41.610;25.380;2023-06-14T12:25:38;0.60;;;0.60;;
40849;SDS011;26571;41.610;25.380;2023-06-14T12:28:08;2.10;;;0.70;;
40849;SDS011;26571;41.610;25.380;2023-06-14T12:30:37;0.88;;;0.63;;
40849;SDS011;26571;41.610;25.380;2023-06-14T12:33:03;0.95;;;0.60;;
40849;SDS011;26571;41.610;25.380;2023-06-14T12:35:30;1.08;;;0.50;;
40849;SDS011;26571;41.610;25.380;2023-06-14T12:37:55;2.83;;;0.57;;
40849;SDS011;26571;41.610;25.380;2023-06-14T12:40:21;1.70;;;0.40;;
40849;SDS011;26571;41.610;25.380;2023-06-14T12:42:47;8.45;;;0.50;;
40849;SDS011;26571;41.610;25.380;2023-06-14T12:45:13;2.30;;;0.60;;
40849;SDS011;26571;41.610;25.380;2023-06-14T12:47:38;0.83;;;0.60;;
40849;SDS011;26571;41.610;25.380;2023-06-14T12:50:04;0.83;;;0.60;;
40849;SDS011;26571;41.610;25.380;2023-06-14T12:52:30;2.25;;;0.88;;
40849;SDS011;26571;41.610;25.380;2023-06-14T12:54:55;5.27;;;1.50;;
40849;SDS011;26571;41.610;25.380;2023-06-14T12:57:21;2.33;;;0.60;;
40849;SDS011;26571;41.610;25.380;2023-06-14T12:59:46;0.40;;;0.40;;
40849;SDS011;26571;41.610;25.380;2023-06-14T13:02:16;0.47;;;0.40;;
40849;SDS011;26571;41.610;25.380;2023-06-14T13:04:42;0.50;;;0.50;;
40849;SDS011;26571;41.610;25.380;2023-06-14T13:07:08;1.23;;;0.50;;
40849;SDS011;26571;41.610;25.380;2023-06-14T13:09:35;1.55;;;0.50;;
40849;SDS011;26571;41.610;25.380;2023-06-14T13:12:01;1.87;;;1.70;;
40849;SDS011;26571;41.610;25.380;2023-06-14T13:14:26;0.90;;;0.50;;
40849;SDS011;26571;41.610;25.380;2023-06-14T13:16:52;1.27;;;0.43;;
40849;SDS011;26571;41.610;25.380;2023-06-14T13:19:17;0.90;;;0.60;;
40849;SDS011;26571;41.610;25.380;2023-06-14T13:21:42;1.87;;;0.47;;
40849;SDS011;26571;41.610;25.380;2023-06-14T13:24:08;1.57;;;0.50;;
40849;SDS011;26571;41.610;25.380;2023-06-14T13:26:33;1.10;;;0.50;;
40849;SDS011;26571;41.610;25.380;2023-06-14T13:28:59;0.50;;;0.50;;
40849;SDS011;26571;41.610;25.380;2023-06-14T13:31:25;1.63;;;0.40;;
40849;SDS011;26571;41.610;25.380;2023-06-14T13:33:50;0.53;;;0.53;;
40849;SDS011;26571;41.610;25.380;2023-06-14T13:36:16;5.20;;;0.70;;
40849;SDS011;26571;41.610;25.380;2023-06-14T13:38:41;0.60;;;0.60;;
40849;SDS011;26571;41.610;25.380;2023-06-14T13:41:06;0.50;;;0.50;;
40849;SDS011;26571;41.610;25.380;2023-06-14T13:43:32;1.40;;;0.60;;
40849;SDS011;26571;41.610;25.380;2023-06-14T13:45:57;1.17;;;0.57;;
40849;SDS011;26571;41.610;25.380;2023-06-14T13:48:23;9.50;;;0.63;;
40849;SDS011;26571;41.610;25.380;2023-06-14T13:50:48;1.00;;;0.90;;
40849;SDS011;26571;41.610;25.380;2023-06-14T13:53:14;1.33;;;0.50;;
40849;SDS011;26571;41.610;25.380;2023-06-14T13:55:39;3.03;;;0.50;;
40849;SDS011;26571;41.610;25.380;2023-06-14T13:58:05;0.63;;;0.50;;
40849;SDS011;26571;41.610;25.380;2023-06-14T14:00:30;2.80;;;0.83;;
40849;SDS011;26571;41.610;25.380;2023-06-14T14:02:55;4.40;;;0.70;;
40849;SDS011;26571;41.610;25.380;2023-06-14T14:05:22;1.75;;;0.60;;
40849;SDS011;26571;41.610;25.380;2023-06-14T14:07:53;0.90;;;0.40;;
40849;SDS011;26571;41.610;25.380;2023-06-14T14:10:19;0.50;;;0.40;;
40849;SDS011;26571;41.610;25.380;2023-06-14T14:12:45;0.70;;;0.50;;
40849;SDS011;26571;41.610;25.380;2023-06-14T14:15:11;1.33;;;0.77;;
40849;SDS011;26571;41.610;25.380;2023-06-14T14:17:39;1.75;;;0.40;;
40849;SDS011;26571;41.610;25.380;2023-06-14T14:20:06;1.55;;;0.40;;
40849;SDS011;26571;41.610;25.380;2023-06-14T14:22:32;0.98;;;0.40;;
40849;SDS011;26571;41.610;25.380;2023-06-14T14:24:57;1.20;;;0.57;;
40849;SDS011;26571;41.610;25.380;2023-06-14T14:27:23;2.23;;;0.40;;
40849;SDS011;26571;41.610;25.380;2023-06-14T14:29:48;2.13;;;0.33;;
40849;SDS011;26571;41.610;25.380;2023-06-14T14:32:13;0.90;;;0.70;;
40849;SDS011;26571;41.610;25.380;2023-06-14T14:34:40;1.40;;;1.30;;
40849;SDS011;26571;41.610;25.380;2023-06-14T14:37:05;3.03;;;0.40;;
40849;SDS011;26571;41.610;25.380;2023-06-14T14:39:31;1.77;;;0.47;;
40849;SDS011;26571;41.610;25.380;2023-06-14T14:41:56;0.97;;;0.40;;
40849;SDS011;26571;41.610;25.380;2023-06-14T14:44:21;0.40;;;0.40;;
40849;SDS011;26571;41.610;25.380;2023-06-14T14:46:47;1.90;;;0.40;;
40849;SDS011;26571;41.610;25.380;2023-06-14T14:49:12;0.80;;;0.50;;
40849;SDS011;26571;41.610;25.380;2023-06-14T14:51:38;0.97;;;0.33;;
40849;SDS011;26571;41.610;25.380;2023-06-14T14:54:04;0.98;;;0.40;;
40849;SDS011;26571;41.610;25.380;2023-06-14T14:56:30;1.27;;;0.40;;
40849;SDS011;26571;41.610;25.380;2023-06-14T14:58:56;2.13;;;0.60;;
40849;SDS011;26571;41.610;25.380;2023-06-14T15:01:21;2.10;;;0.30;;
40849;SDS011;26571;41.610;25.380;2023-06-14T15:03:47;4.03;;;0.60;;
40849;SDS011;26571;41.610;25.380;2023-06-14T15:06:12;0.60;;;0.40;;
40849;SDS011;26571;41.610;25.380;2023-06-14T15:08:38;0.40;;;0.30;;
40849;SDS011;26571;41.610;25.380;2023-06-14T15:11:03;2.20;;;0.40;;